Terminal Aerodrome Forecast
Issued by NWS Wilmington, OH

Home | Current Version | Previous Version | Text Only | Print | Product List | Glossary On
Versions: 1 2 3 4 5 6 7 8 9 10 11 12 13 14 15 16 17 18
000
FTUS41 KILN 232300 RRA
TAFCMH
TAF
KCMH 232344Z 2400/2424 13014G24KT 4SM -SHRA BR SCT025 OVC045
      TEMPO 2402/2404 2SM SHRA BR OVC025
     FM240500 17015G25KT 5SM -SHRA BR OVC012
     FM240800 21015G25KT P6SM VCSH SCT008 OVC012
     FM241400 21018G32KT 5SM -SHRA BR SCT012 OVC022
     FM241800 24026G40KT 5SM -SHRA BR SCT012 OVC022
     FM242000 24024G36KT P6SM BKN025=

USA.gov is the U.S. government's official web portal to all federal, state and local government web resources and services.